This is the latest recevied weather packets stored in our database for station/object KK7KRZ. If no packets are shown the sender has not sent any weather packets the latest 1 day(s).
| Time | Temp. | Humidity | Pressure | Rain* | Wind** | Luminosity | Snow |
|---|---|---|---|---|---|---|---|
| 1777995247 | 12.78° C | 87% | 1016.2 hPa | 0 mm | 0 m/s | 52 W/m² | - |
| 1777994939 | 12.78° C | 88% | 1015.9 hPa | 0 mm | 0 m/s | 51 W/m² | - |
| 1777994635 | 12.22° C | 87% | 1015.9 hPa | 0 mm | 0 m/s | 51 W/m² | - |
| 1777994335 | 12.22° C | 87% | 1015.9 hPa | 0 mm | 0 m/s | 49 W/m² | - |
| 1777994032 | 12.22° C | 88% | 1015.9 hPa | 0 mm | 0.45 m/s, 115° | 50 W/m² | - |
| 1777993729 | 12.78° C | 89% | 1016.1 hPa | 0 mm | 0.89 m/s, 143° | 43 W/m² | - |
| 1777993427 | 12.22° C | 90% | 1015.9 hPa | 0 mm | 0 m/s | 42 W/m² | - |
| 1777993126 | 12.22° C | 90% | 1015.8 hPa | 0 mm | 0 m/s | 36 W/m² | - |
| 1777992825 | 12.22° C | 90% | 1015.9 hPa | 0 mm | 0 m/s | 35 W/m² | - |
| 1777992522 | 12.22° C | 90% | 1015.7 hPa | 0 mm | 0.89 m/s, 143° | 30 W/m² | - |
| 1777992221 | 12.22° C | 90% | 1015.7 hPa | 0 mm | 0.45 m/s, 141° | 28 W/m² | - |
| 1777991917 | 11.67° C | 90% | 1015.7 hPa | 0 mm | 0 m/s | 24 W/m² | - |
| 1777991614 | 12.22° C | 90% | 1016 hPa | 0 mm | 0.45 m/s, 148° | 26 W/m² | - |
| 1777991312 | 12.22° C | 91% | 1015.7 hPa | 0 mm | 0 m/s | 22 W/m² | - |
| 1777991009 | 11.67° C | 91% | 1015.6 hPa | 0 mm | 0.45 m/s, 154° | 19 W/m² | - |
| 1777990706 | 11.67° C | 91% | 1015.7 hPa | 0 mm | 0.89 m/s, 142° | 17 W/m² | - |
| 1777990403 | 11.67° C | 91% | 1015.5 hPa | 0 mm | 0.45 m/s, 162° | 15 W/m² | - |
| 1777990100 | 11.67° C | 91% | 1015.3 hPa | 0 mm | 0 m/s | 12 W/m² | - |
| 1777989796 | 11.67° C | 92% | 1015.4 hPa | 0 mm | 0 m/s | 10 W/m² | - |
| 1777989493 | 11.67° C | 92% | 1015.2 hPa | 0 mm | 0 m/s | 10 W/m² | - |
| 1777989189 | 11.67° C | 92% | 1015.3 hPa | 0 mm | 0 m/s | 10 W/m² | - |
| 1777988886 | 11.67° C | 92% | 1015.1 hPa | 0 mm | 0 m/s | 8 W/m² | - |
| 1777988583 | 11.67° C | 92% | 1015.2 hPa | 0 mm | 0 m/s | 8 W/m² | - |
| 1777988279 | 11.67° C | 91% | 1015.2 hPa | 0 mm | 0 m/s | 5 W/m² | - |
| 1777987976 | 11.67° C | 91% | 1015.2 hPa | 0 mm | 0 m/s | 4 W/m² | - |
* Rain latest hour (hover to see other rain measurements)
** Current wind speed in m/s (hover to see current wind gust speed)